createdAt,value
2022-11-25T00:01:14.341Z,4.81
2022-11-25T00:03:41.754Z,4.82
2022-11-25T00:06:14.138Z,4.84
2022-11-25T00:08:42.025Z,4.88
2022-11-25T00:11:09.290Z,4.87
2022-11-25T00:13:36.719Z,4.87
2022-11-25T00:16:04.645Z,4.86
2022-11-25T00:18:31.716Z,4.87
2022-11-25T00:20:58.892Z,4.84
2022-11-25T00:23:30.405Z,4.83
2022-11-25T00:26:09.893Z,4.81
2022-11-25T00:28:36.848Z,4.79
2022-11-25T00:31:08.032Z,4.78
2022-11-25T00:33:34.524Z,4.78
2022-11-25T00:36:02.615Z,4.78
2022-11-25T00:38:29.616Z,4.86
2022-11-25T00:41:15.172Z,4.84
2022-11-25T00:43:59.911Z,4.86
2022-11-25T00:46:26.313Z,4.88
2022-11-25T00:48:52.980Z,4.88
2022-11-25T00:51:19.402Z,4.95
2022-11-25T00:53:46.360Z,4.95
2022-11-25T00:56:15.686Z,4.92
2022-11-25T00:58:43.733Z,4.87
2022-11-25T01:01:11.070Z,4.87
2022-11-25T01:03:38.265Z,4.71
2022-11-25T01:06:06.481Z,4.64
2022-11-25T01:08:34.612Z,4.53
2022-11-25T01:11:03.704Z,4.46
2022-11-25T01:13:30.099Z,4.42
2022-11-25T01:15:56.467Z,4.38
2022-11-25T01:18:22.973Z,4.36
2022-11-25T01:20:49.315Z,4.32
2022-11-25T01:23:15.654Z,4.30
2022-11-25T01:25:42.000Z,4.27
2022-11-25T01:28:08.331Z,4.22
2022-11-25T01:30:39.744Z,4.20
2022-11-25T01:33:07.483Z,4.18
2022-11-25T01:35:37.140Z,4.16
2022-11-25T01:38:03.441Z,4.14
2022-11-25T01:40:29.873Z,4.14
2022-11-25T01:42:56.254Z,4.14
2022-11-25T01:45:32.540Z,4.13
2022-11-25T01:48:11.108Z,4.12
2022-11-25T01:50:37.851Z,4.09
2022-11-25T01:53:09.425Z,4.08
2022-11-25T01:55:39.027Z,4.11
2022-11-25T01:58:11.160Z,4.12
2022-11-25T02:00:38.031Z,4.12
2022-11-25T02:03:05.719Z,4.14
2022-11-25T02:05:50.936Z,4.12
2022-11-25T02:08:19.894Z,4.17
2022-11-25T02:10:46.520Z,4.20
2022-11-25T02:13:12.994Z,4.22
2022-11-25T02:15:39.431Z,4.20
2022-11-25T02:18:06.732Z,4.21
2022-11-25T02:20:33.442Z,4.18
2022-11-25T02:23:30.892Z,4.22
2022-11-25T02:25:57.789Z,4.22
2022-11-25T02:28:27.564Z,4.22
2022-11-25T02:30:54.555Z,4.20
2022-11-25T02:33:21.510Z,4.20
2022-11-25T02:35:49.872Z,4.21
2022-11-25T02:38:20.586Z,4.20
2022-11-25T02:41:10.782Z,4.20
2022-11-25T02:43:37.904Z,4.19
2022-11-25T02:46:10.014Z,4.19
2022-11-25T02:49:07.319Z,4.18
2022-11-25T02:51:27.954Z,4.18
2022-11-25T02:53:56.572Z,4.18
2022-11-25T02:56:26.336Z,4.33
2022-11-25T02:58:52.944Z,4.31
2022-11-25T03:01:19.626Z,4.24
2022-11-25T03:03:46.048Z,4.25
2022-11-25T03:06:12.426Z,4.27
2022-11-25T03:08:38.914Z,4.20
2022-11-25T03:11:06.276Z,4.22
2022-11-25T03:13:32.720Z,4.17
2022-11-25T03:15:59.091Z,4.17
2022-11-25T03:18:25.665Z,4.18
2022-11-25T03:20:54.046Z,4.39
2022-11-25T03:23:20.819Z,4.37
2022-11-25T03:25:47.196Z,4.33
2022-11-25T03:28:13.712Z,4.32
2022-11-25T03:30:40.786Z,4.32
2022-11-25T03:33:07.125Z,4.31
2022-11-25T03:35:33.488Z,4.27
2022-11-25T03:37:59.887Z,4.22
2022-11-25T03:40:26.285Z,4.18
2022-11-25T03:42:52.627Z,4.18
2022-11-25T03:45:19.008Z,4.18
2022-11-25T03:47:46.082Z,4.23
2022-11-25T03:50:14.691Z,4.31
2022-11-25T03:52:41.304Z,4.34
2022-11-25T03:55:08.186Z,4.49
2022-11-25T03:57:35.043Z,4.41
2022-11-25T04:00:01.992Z,4.45
2022-11-25T04:02:28.593Z,4.52
2022-11-25T04:04:55.024Z,4.65
2022-11-25T04:07:21.418Z,4.79
2022-11-25T04:09:47.992Z,4.78
2022-11-25T04:12:32.767Z,4.78
2022-11-25T04:14:59.182Z,4.77
2022-11-25T04:17:25.551Z,4.77
2022-11-25T04:19:51.997Z,4.77
2022-11-25T04:22:18.339Z,4.79
2022-11-25T04:24:44.716Z,4.97
2022-11-25T04:27:11.085Z,4.83
2022-11-25T04:29:37.448Z,4.96
2022-11-25T04:32:04.051Z,4.88
2022-11-25T04:34:30.444Z,4.84
2022-11-25T04:36:56.822Z,4.77
2022-11-25T04:39:23.168Z,4.71
2022-11-25T04:41:49.536Z,4.71
2022-11-25T04:44:15.888Z,4.67
2022-11-25T04:46:43.092Z,4.65
2022-11-25T04:49:11.039Z,4.67
2022-11-25T04:51:37.461Z,4.77
2022-11-25T04:54:03.911Z,4.81
2022-11-25T04:56:30.305Z,4.82
2022-11-25T04:59:14.968Z,4.79
2022-11-25T05:01:41.421Z,4.76
2022-11-25T05:04:07.857Z,4.56
2022-11-25T05:06:34.283Z,4.41
2022-11-25T05:09:00.658Z,4.33
2022-11-25T05:11:27.013Z,4.30
2022-11-25T05:13:53.466Z,4.16
2022-11-25T05:16:19.851Z,4.06
2022-11-25T05:18:46.230Z,3.99
2022-11-25T05:21:12.605Z,3.93
2022-11-25T05:23:39.008Z,3.84
2022-11-25T05:26:05.489Z,3.77
2022-11-25T05:28:31.925Z,3.70
2022-11-25T05:30:58.540Z,3.67
2022-11-25T05:33:25.006Z,3.62
2022-11-25T05:36:03.025Z,3.57
2022-11-25T05:38:30.140Z,3.52
2022-11-25T05:41:05.513Z,3.47
2022-11-25T05:43:32.404Z,3.39
2022-11-25T05:45:59.697Z,3.33
2022-11-25T05:48:26.110Z,3.29
2022-11-25T05:50:52.457Z,3.24
2022-11-25T05:53:18.920Z,3.19
2022-11-25T05:55:53.172Z,3.15
2022-11-25T05:58:19.510Z,3.12
2022-11-25T06:00:45.843Z,3.09
2022-11-25T06:03:12.422Z,3.06
2022-11-25T06:05:38.840Z,3.04
2022-11-25T06:08:05.255Z,3.02
2022-11-25T06:10:31.608Z,2.99
2022-11-25T06:12:58.004Z,2.98
2022-11-25T06:15:24.574Z,2.94
2022-11-25T06:17:50.978Z,2.93
2022-11-25T06:20:17.409Z,2.92
2022-11-25T06:22:43.769Z,3.00
2022-11-25T06:25:10.171Z,3.16
2022-11-25T06:28:04.450Z,3.06
2022-11-25T06:30:22.914Z,2.99
2022-11-25T06:32:49.272Z,2.97
2022-11-25T06:35:15.696Z,2.94
2022-11-25T06:37:42.157Z,2.88
2022-11-25T06:40:09.037Z,2.82
2022-11-25T06:42:38.092Z,2.74
2022-11-25T06:45:05.270Z,2.71
2022-11-25T06:47:31.815Z,2.72
2022-11-25T06:49:58.184Z,2.72
2022-11-25T06:52:24.593Z,2.67
2022-11-25T06:54:51.558Z,2.66
2022-11-25T06:57:19.288Z,2.65
2022-11-25T06:59:45.772Z,2.58
2022-11-25T07:02:12.515Z,2.57
2022-11-25T07:04:40.254Z,2.60
2022-11-25T07:07:07.617Z,2.56
2022-11-25T07:09:34.009Z,2.55
2022-11-25T07:12:00.463Z,2.55
2022-11-25T07:14:26.819Z,2.53
2022-11-25T07:16:53.640Z,2.54
2022-11-25T07:19:20.273Z,2.55
2022-11-25T07:21:46.955Z,2.56
2022-11-25T07:24:18.132Z,2.52
2022-11-25T07:26:45.045Z,2.49
2022-11-25T07:29:36.378Z,2.52
2022-11-25T07:32:03.391Z,2.58
2022-11-25T07:34:33.580Z,2.52
2022-11-25T07:36:59.923Z,2.54
2022-11-25T07:39:26.355Z,2.52
2022-11-25T07:41:53.908Z,2.50
2022-11-25T07:44:20.962Z,2.53
2022-11-25T07:46:49.072Z,2.58
2022-11-25T07:49:18.041Z,2.64
2022-11-25T07:51:53.793Z,2.77
2022-11-25T07:54:21.422Z,2.87
2022-11-25T07:56:48.695Z,2.80
2022-11-25T07:59:20.947Z,2.74
2022-11-25T08:01:50.488Z,2.74
2022-11-25T08:04:20.543Z,2.75
2022-11-25T08:06:49.301Z,2.78
2022-11-25T08:09:19.817Z,2.82
2022-11-25T08:11:48.761Z,2.79
2022-11-25T08:14:16.324Z,2.82
2022-11-25T08:16:43.090Z,3.11
2022-11-25T08:19:13.701Z,3.39
2022-11-25T08:21:40.400Z,3.19
2022-11-25T08:24:06.934Z,3.03
2022-11-25T08:26:37.500Z,2.92
2022-11-25T08:29:06.393Z,2.92
2022-11-25T08:31:36.232Z,2.95
2022-11-25T08:34:04.098Z,2.86
2022-11-25T08:36:30.896Z,2.85
2022-11-25T08:39:00.553Z,2.87
2022-11-25T08:41:30.469Z,2.85
2022-11-25T08:43:58.802Z,2.95
2022-11-25T08:46:29.057Z,2.85
2022-11-25T08:48:56.159Z,2.83
2022-11-25T08:51:26.315Z,2.95
2022-11-25T08:53:52.755Z,2.90
2022-11-25T08:56:25.689Z,3.02
2022-11-25T08:58:53.881Z,3.00
2022-11-25T09:01:20.975Z,3.04
2022-11-25T09:03:50.368Z,2.97
2022-11-25T09:06:18.328Z,2.97
2022-11-25T09:08:45.611Z,3.01
2022-11-25T09:11:12.438Z,3.01
2022-11-25T09:13:39.382Z,2.98
2022-11-25T09:16:07.063Z,2.98
2022-11-25T09:18:35.296Z,3.00
2022-11-25T09:21:11.093Z,3.03
2022-11-25T09:23:39.319Z,3.11
2022-11-25T09:26:07.055Z,3.20
2022-11-25T09:28:34.691Z,3.17
2022-11-25T09:31:08.013Z,3.22
2022-11-25T09:33:34.504Z,3.22
2022-11-25T09:36:01.908Z,3.27
2022-11-25T09:38:28.251Z,3.38
2022-11-25T09:41:01.489Z,3.45
2022-11-25T09:44:18.988Z,3.52
2022-11-25T09:46:59.973Z,3.56
2022-11-25T09:49:45.155Z,3.56
2022-11-25T09:52:30.380Z,3.62
2022-11-25T09:54:56.812Z,3.63
2022-11-25T09:57:28.962Z,3.71
2022-11-25T10:00:13.911Z,3.84
2022-11-25T10:03:11.463Z,3.88
2022-11-25T10:05:41.998Z,3.90
2022-11-25T10:08:25.201Z,3.94
2022-11-25T10:10:58.492Z,3.98
2022-11-25T10:13:34.303Z,3.99
2022-11-25T10:16:05.246Z,4.03
2022-11-25T10:18:42.322Z,4.06
2022-11-25T10:21:11.584Z,4.20
2022-11-25T10:23:39.817Z,4.25
2022-11-25T10:26:13.658Z,4.24
2022-11-25T10:28:44.601Z,4.30
2022-11-25T10:31:27.092Z,4.41
2022-11-25T10:33:57.252Z,4.46
2022-11-25T10:36:36.702Z,4.45
2022-11-25T10:39:11.466Z,4.47
2022-11-25T10:42:03.432Z,4.47
2022-11-25T10:44:33.902Z,4.56
2022-11-25T10:47:49.486Z,4.56
2022-11-25T10:50:36.352Z,4.73
2022-11-25T10:53:17.139Z,4.83
2022-11-25T10:56:09.946Z,4.93
2022-11-25T10:58:38.797Z,4.96
2022-11-25T11:01:16.686Z,4.98
2022-11-25T11:03:45.176Z,5.05
2022-11-25T11:06:36.036Z,5.09
2022-11-25T11:09:03.384Z,5.17
2022-11-25T11:11:30.269Z,5.18
2022-11-25T11:14:13.721Z,5.27
2022-11-25T11:16:52.212Z,5.34
2022-11-25T11:19:24.420Z,5.47
2022-11-25T11:21:51.182Z,5.57
2022-11-25T11:24:26.890Z,5.66
2022-11-25T11:27:21.389Z,5.66
2022-11-25T11:29:47.804Z,5.69
2022-11-25T11:32:23.791Z,5.75
2022-11-25T11:35:19.743Z,5.77
2022-11-25T11:37:52.510Z,5.81
2022-11-25T11:40:30.757Z,5.84
2022-11-25T11:43:06.130Z,5.88
2022-11-25T11:45:52.910Z,6.00
2022-11-25T11:48:39.623Z,6.07
2022-11-25T11:51:24.326Z,6.16
2022-11-25T11:53:56.355Z,6.26
2022-11-25T11:56:55.600Z,6.27
2022-11-25T11:59:34.354Z,6.30
2022-11-25T12:02:34.823Z,6.35
2022-11-25T12:05:10.106Z,6.37
2022-11-25T12:07:47.589Z,6.42
2022-11-25T12:10:13.927Z,6.43
2022-11-25T12:13:02.940Z,6.45
2022-11-25T12:15:56.939Z,6.48
2022-11-25T12:18:34.275Z,6.50
2022-11-25T12:21:05.414Z,6.49
2022-11-25T12:24:04.328Z,6.53
2022-11-25T12:26:52.127Z,6.54
2022-11-25T12:29:47.795Z,6.49
2022-11-25T12:32:42.193Z,6.57
2022-11-25T12:35:11.565Z,6.63
2022-11-25T12:37:46.513Z,6.59
2022-11-25T12:40:27.279Z,6.66
2022-11-25T12:43:01.250Z,6.63
2022-11-25T12:45:28.148Z,6.68
2022-11-25T12:47:54.625Z,6.70
2022-11-25T12:50:35.767Z,6.70
2022-11-25T12:53:13.065Z,6.76
2022-11-25T12:55:40.728Z,6.73
2022-11-25T12:58:10.134Z,6.70
2022-11-25T13:00:49.118Z,6.74
2022-11-25T13:04:06.463Z,6.78
2022-11-25T13:06:58.889Z,6.78
2022-11-25T13:09:53.942Z,6.78
2022-11-25T13:12:37.377Z,6.82
2022-11-25T13:15:27.746Z,6.78
2022-11-25T13:17:59.315Z,6.82
2022-11-25T13:20:28.552Z,6.82
2022-11-25T13:23:10.760Z,6.83
2022-11-25T13:25:40.450Z,6.88
2022-11-25T13:28:36.613Z,6.92
2022-11-25T13:31:24.643Z,6.92
2022-11-25T13:34:24.266Z,6.94
2022-11-25T13:36:53.066Z,6.91
2022-11-25T13:39:28.973Z,6.89
2022-11-25T13:42:20.376Z,6.93
2022-11-25T13:44:54.767Z,6.84
2022-11-25T13:47:45.408Z,6.79
2022-11-25T13:50:20.346Z,6.70
2022-11-25T13:52:59.045Z,6.83
2022-11-25T13:55:31.481Z,6.61
2022-11-25T13:58:03.783Z,6.56
2022-11-25T14:00:32.878Z,6.54
2022-11-25T14:03:18.163Z,6.52
2022-11-25T14:06:15.447Z,6.46
2022-11-25T14:09:02.981Z,6.40
2022-11-25T14:11:58.592Z,6.37
2022-11-25T14:14:48.053Z,6.34
2022-11-25T14:17:26.438Z,6.29
2022-11-25T14:20:14.748Z,6.23
2022-11-25T14:23:22.181Z,6.18
2022-11-25T14:25:57.429Z,6.10
2022-11-25T14:28:40.105Z,6.06
2022-11-25T14:31:11.038Z,6.02
2022-11-25T14:33:48.439Z,6.01
2022-11-25T14:36:21.580Z,5.95
2022-11-25T14:38:59.757Z,5.92
2022-11-25T14:41:37.874Z,5.90
2022-11-25T14:44:14.292Z,5.90
2022-11-25T14:46:55.079Z,5.99
2022-11-25T14:49:46.618Z,5.90
2022-11-25T14:52:10.773Z,5.79
2022-11-25T14:54:44.999Z,5.82
2022-11-25T14:57:11.686Z,5.79
2022-11-25T14:59:44.930Z,5.67
2022-11-25T15:02:35.590Z,5.68
2022-11-25T15:05:08.020Z,5.57
2022-11-25T15:07:34.516Z,5.53
2022-11-25T15:10:00.968Z,5.45
2022-11-25T15:12:32.330Z,5.42
2022-11-25T15:14:59.471Z,5.35
2022-11-25T15:17:31.328Z,5.29
2022-11-25T15:20:01.466Z,5.27
2022-11-25T15:22:28.449Z,5.24
2022-11-25T15:25:06.385Z,5.27
2022-11-25T15:27:33.056Z,5.18
2022-11-25T15:29:59.585Z,5.13
2022-11-25T15:32:29.797Z,5.18
2022-11-25T15:34:59.656Z,5.12
2022-11-25T15:37:26.435Z,5.17
2022-11-25T15:40:31.109Z,5.11
2022-11-25T15:43:04.195Z,5.07
2022-11-25T15:45:42.330Z,5.06
2022-11-25T15:48:27.224Z,5.07
2022-11-25T15:51:17.495Z,4.99
2022-11-25T15:53:46.798Z,4.98
2022-11-25T15:56:20.689Z,4.93
2022-11-25T15:58:47.101Z,4.94
2022-11-25T16:01:17.004Z,4.99
2022-11-25T16:03:44.920Z,5.04
2022-11-25T16:06:21.090Z,4.96
2022-11-25T16:08:57.673Z,5.02
2022-11-25T16:11:25.628Z,4.99
2022-11-25T16:13:53.433Z,4.94
2022-11-25T16:16:30.088Z,4.87
2022-11-25T16:19:02.851Z,4.97
2022-11-25T16:21:39.945Z,4.89
2022-11-25T16:24:06.405Z,5.07
2022-11-25T16:26:40.120Z,4.92
2022-11-25T16:29:18.331Z,4.93
2022-11-25T16:31:44.889Z,4.88
2022-11-25T16:34:17.211Z,4.91
2022-11-25T16:36:43.816Z,4.89
2022-11-25T16:39:10.247Z,4.84
2022-11-25T16:41:37.609Z,4.78
2022-11-25T16:44:24.407Z,4.74
2022-11-25T16:46:51.138Z,4.79
2022-11-25T16:49:20.125Z,4.95
2022-11-25T16:51:46.593Z,4.88
2022-11-25T16:54:13.017Z,4.83
2022-11-25T16:56:41.807Z,4.79
2022-11-25T16:59:17.318Z,4.76
2022-11-25T17:01:43.931Z,4.78
2022-11-25T17:04:15.157Z,4.72
2022-11-25T17:06:42.950Z,4.76
2022-11-25T17:09:09.298Z,4.75
2022-11-25T17:11:46.328Z,4.68
2022-11-25T17:14:33.627Z,4.66
2022-11-25T17:17:00.940Z,4.64
2022-11-25T17:19:27.427Z,4.66
2022-11-25T17:21:53.905Z,4.60
2022-11-25T17:24:25.196Z,4.68
2022-11-25T17:27:04.855Z,4.67
2022-11-25T17:29:39.856Z,4.68
2022-11-25T17:32:06.881Z,4.65
2022-11-25T17:34:37.947Z,4.62
2022-11-25T17:37:32.874Z,4.67
2022-11-25T17:39:59.469Z,4.70
2022-11-25T17:42:32.001Z,4.65
2022-11-25T17:44:58.813Z,4.67
2022-11-25T17:47:25.226Z,4.65
2022-11-25T17:49:51.992Z,4.65
2022-11-25T17:52:18.392Z,4.61
2022-11-25T17:54:44.751Z,4.61
2022-11-25T17:57:21.267Z,4.59
2022-11-25T17:59:47.894Z,4.64
2022-11-25T18:02:19.663Z,4.71
2022-11-25T18:04:46.693Z,4.68
2022-11-25T18:07:13.284Z,4.70
2022-11-25T18:09:39.901Z,4.71
2022-11-25T18:12:13.150Z,4.68
2022-11-25T18:14:42.719Z,4.69
2022-11-25T18:17:14.274Z,4.69
2022-11-25T18:19:40.698Z,4.68
2022-11-25T18:22:16.151Z,4.70
2022-11-25T18:24:43.367Z,4.71
2022-11-25T18:27:21.596Z,4.70
2022-11-25T18:29:48.409Z,4.68
2022-11-25T18:32:14.816Z,4.67
2022-11-25T18:34:41.190Z,4.71
2022-11-25T18:37:11.772Z,4.69
2022-11-25T18:39:38.535Z,4.68
2022-11-25T18:42:06.967Z,4.69
2022-11-25T18:44:43.456Z,4.69
2022-11-25T18:47:12.811Z,4.69
2022-11-25T18:49:39.507Z,4.72
2022-11-25T18:52:05.890Z,4.71
2022-11-25T18:54:32.405Z,4.70
2022-11-25T18:56:58.768Z,4.70
2022-11-25T18:59:31.832Z,4.75
2022-11-25T19:01:58.325Z,4.80
2022-11-25T19:04:24.766Z,4.81
2022-11-25T19:06:51.371Z,4.80
2022-11-25T19:09:17.788Z,4.83
2022-11-25T19:11:51.688Z,4.83
2022-11-25T19:14:32.181Z,4.84
2022-11-25T19:17:16.743Z,4.83
2022-11-25T19:19:45.952Z,4.82
2022-11-25T19:22:15.072Z,4.83
2022-11-25T19:24:41.976Z,4.79
2022-11-25T19:27:17.814Z,4.77
2022-11-25T19:29:44.833Z,4.75
2022-11-25T19:32:18.939Z,4.75
2022-11-25T19:34:48.445Z,4.77
2022-11-25T19:37:19.931Z,4.75
2022-11-25T19:39:48.106Z,4.77
2022-11-25T19:42:17.493Z,4.81
2022-11-25T19:44:45.407Z,4.82
2022-11-25T19:47:23.107Z,4.80
2022-11-25T19:49:52.837Z,4.90
2022-11-25T19:52:23.586Z,5.30
2022-11-25T19:54:50.008Z,5.50
2022-11-25T19:57:19.980Z,5.25
2022-11-25T19:59:46.534Z,5.24
2022-11-25T20:02:15.787Z,5.34
2022-11-25T20:04:44.536Z,5.29
2022-11-25T20:07:16.865Z,5.25
2022-11-25T20:09:43.880Z,5.21
2022-11-25T20:12:23.976Z,5.30
2022-11-25T20:14:51.474Z,5.19
2022-11-25T20:17:33.161Z,5.16
2022-11-25T20:20:10.045Z,5.19
2022-11-25T20:22:39.714Z,5.18
2022-11-25T20:25:06.964Z,5.38
2022-11-25T20:27:34.174Z,5.44
2022-11-25T20:30:00.803Z,5.42
2022-11-25T20:32:30.041Z,5.46
2022-11-25T20:35:00.991Z,5.56
2022-11-25T20:37:40.264Z,5.57
2022-11-25T20:40:17.043Z,5.61
2022-11-25T20:42:43.544Z,5.75
2022-11-25T20:45:21.605Z,5.79
2022-11-25T20:47:50.800Z,5.80
2022-11-25T20:50:18.917Z,5.88
2022-11-25T20:52:46.117Z,5.99
2022-11-25T20:55:16.668Z,6.22
2022-11-25T20:57:43.225Z,6.22
2022-11-25T21:00:35.692Z,6.37
2022-11-25T21:03:02.477Z,6.51
2022-11-25T21:05:28.855Z,6.48
2022-11-25T21:07:55.404Z,6.53
2022-11-25T21:10:28.221Z,6.56
2022-11-25T21:12:55.470Z,6.50
2022-11-25T21:15:25.204Z,6.56
2022-11-25T21:17:51.677Z,6.50
2022-11-25T21:20:19.203Z,6.53
2022-11-25T21:22:49.698Z,6.49
2022-11-25T21:25:19.477Z,6.43
2022-11-25T21:27:47.741Z,6.53
2022-11-25T21:30:26.990Z,6.43
2022-11-25T21:32:58.233Z,6.41
2022-11-25T21:35:30.286Z,6.40
2022-11-25T21:37:57.044Z,6.37
2022-11-25T21:40:38.123Z,6.32
2022-11-25T21:43:06.795Z,6.33
2022-11-25T21:45:33.265Z,6.35
2022-11-25T21:48:00.849Z,6.35
2022-11-25T21:50:29.757Z,6.34
2022-11-25T21:52:56.850Z,6.30
2022-11-25T21:55:23.278Z,6.22
2022-11-25T21:57:50.025Z,6.21
2022-11-25T22:00:25.461Z,6.20
2022-11-25T22:02:52.636Z,6.18
2022-11-25T22:05:21.688Z,6.21
2022-11-25T22:07:48.162Z,6.15
2022-11-25T22:10:16.014Z,6.16
2022-11-25T22:12:44.850Z,6.17
2022-11-25T22:15:18.462Z,6.25
2022-11-25T22:17:45.580Z,6.18
2022-11-25T22:20:33.382Z,6.08
2022-11-25T22:23:00.960Z,6.04
2022-11-25T22:25:30.085Z,6.19
2022-11-25T22:27:56.762Z,6.06
2022-11-25T22:30:24.142Z,5.97
2022-11-25T22:32:58.749Z,5.96
2022-11-25T22:35:25.211Z,5.91
2022-11-25T22:37:55.173Z,5.89
2022-11-25T22:40:23.424Z,5.86
2022-11-25T22:42:51.199Z,5.90
2022-11-25T22:45:29.512Z,5.88
2022-11-25T22:47:56.851Z,5.90
2022-11-25T22:50:27.440Z,6.07
2022-11-25T22:52:54.669Z,6.02
2022-11-25T22:55:25.441Z,6.09
2022-11-25T22:57:53.654Z,6.06
2022-11-25T23:00:26.610Z,6.18
2022-11-25T23:02:56.862Z,6.24
2022-11-25T23:05:33.420Z,6.28
2022-11-25T23:08:01.791Z,6.31
2022-11-25T23:10:31.055Z,6.31
2022-11-25T23:12:57.654Z,6.32
2022-11-25T23:15:24.793Z,6.42
2022-11-25T23:17:54.948Z,6.37
2022-11-25T23:20:26.110Z,6.45
2022-11-25T23:22:53.441Z,6.44
2022-11-25T23:25:21.771Z,6.47
2022-11-25T23:27:48.637Z,6.52
2022-11-25T23:30:17.655Z,6.49
2022-11-25T23:32:45.233Z,6.49
2022-11-25T23:35:17.181Z,6.53
2022-11-25T23:37:43.853Z,6.50
2022-11-25T23:40:19.521Z,6.53
2022-11-25T23:42:45.951Z,6.57
2022-11-25T23:45:17.263Z,6.54
2022-11-25T23:47:47.082Z,6.57
2022-11-25T23:50:25.121Z,6.52
2022-11-25T23:52:55.710Z,6.52
2022-11-25T23:55:29.001Z,6.48
2022-11-25T23:57:55.882Z,6.43
